sensor_id;sensor_type;location;lat;lon;timestamp;P1;durP1;ratioP1;P2;durP2;ratioP2
17414;SDS011;8825;48.086;16.426;2023-12-20T00:02:23;87.22;;;81.63;;
17414;SDS011;8825;48.086;16.426;2023-12-20T00:04:51;74.65;;;69.77;;
17414;SDS011;8825;48.086;16.426;2023-12-20T00:07:18;93.58;;;87.85;;
17414;SDS011;8825;48.086;16.426;2023-12-20T00:09:46;98.55;;;92.65;;
17414;SDS011;8825;48.086;16.426;2023-12-20T00:12:13;116.62;;;110.08;;
17414;SDS011;8825;48.086;16.426;2023-12-20T00:14:41;167.82;;;159.37;;
17414;SDS011;8825;48.086;16.426;2023-12-20T00:17:08;135.82;;;128.32;;
17414;SDS011;8825;48.086;16.426;2023-12-20T00:19:36;95.97;;;90.05;;
17414;SDS011;8825;48.086;16.426;2023-12-20T00:24:50;133.75;;;126.40;;
17414;SDS011;8825;48.086;16.426;2023-12-20T00:27:18;89.52;;;83.90;;
17414;SDS011;8825;48.086;16.426;2023-12-20T00:29:45;109.80;;;103.20;;
17414;SDS011;8825;48.086;16.426;2023-12-20T00:32:14;107.60;;;101.20;;
17414;SDS011;8825;48.086;16.426;2023-12-20T00:34:43;122.78;;;115.55;;
17414;SDS011;8825;48.086;16.426;2023-12-20T00:37:10;131.97;;;124.22;;
17414;SDS011;8825;48.086;16.426;2023-12-20T00:39:38;78.70;;;73.12;;
17414;SDS011;8825;48.086;16.426;2023-12-20T00:42:05;78.57;;;73.05;;
17414;SDS011;8825;48.086;16.426;2023-12-20T00:44:33;128.90;;;122.07;;
17414;SDS011;8825;48.086;16.426;2023-12-20T00:47:00;160.35;;;151.70;;
17414;SDS011;8825;48.086;16.426;2023-12-20T00:49:28;149.38;;;141.55;;
17414;SDS011;8825;48.086;16.426;2023-12-20T00:51:55;206.43;;;196.20;;
17414;SDS011;8825;48.086;16.426;2023-12-20T00:54:23;174.30;;;164.97;;
17414;SDS011;8825;48.086;16.426;2023-12-20T00:56:51;124.95;;;117.97;;
17414;SDS011;8825;48.086;16.426;2023-12-20T00:59:19;92.47;;;86.82;;
17414;SDS011;8825;48.086;16.426;2023-12-20T01:01:46;93.47;;;87.75;;
17414;SDS011;8825;48.086;16.426;2023-12-20T01:04:13;166.43;;;157.18;;
17414;SDS011;8825;48.086;16.426;2023-12-20T01:06:41;119.95;;;112.85;;
17414;SDS011;8825;48.086;16.426;2023-12-20T01:09:08;134.40;;;126.85;;
17414;SDS011;8825;48.086;16.426;2023-12-20T01:11:36;179.87;;;170.55;;
17414;SDS011;8825;48.086;16.426;2023-12-20T01:14:03;113.30;;;107.00;;
17414;SDS011;8825;48.086;16.426;2023-12-20T01:16:31;154.85;;;146.55;;
17414;SDS011;8825;48.086;16.426;2023-12-20T01:18:58;189.22;;;179.75;;
17414;SDS011;8825;48.086;16.426;2023-12-20T01:21:26;180.42;;;171.53;;
17414;SDS011;8825;48.086;16.426;2023-12-20T01:23:53;224.67;;;214.12;;
17414;SDS011;8825;48.086;16.426;2023-12-20T01:26:21;132.50;;;125.00;;
17414;SDS011;8825;48.086;16.426;2023-12-20T01:28:48;108.85;;;102.17;;
17414;SDS011;8825;48.086;16.426;2023-12-20T01:31:16;100.92;;;94.77;;
17414;SDS011;8825;48.086;16.426;2023-12-20T01:33:43;98.20;;;91.95;;
17414;SDS011;8825;48.086;16.426;2023-12-20T01:36:11;111.83;;;104.85;;
17414;SDS011;8825;48.086;16.426;2023-12-20T01:38:39;134.12;;;126.27;;
17414;SDS011;8825;48.086;16.426;2023-12-20T01:41:06;140.20;;;130.25;;
17414;SDS011;8825;48.086;16.426;2023-12-20T01:43:34;92.20;;;85.95;;
17414;SDS011;8825;48.086;16.426;2023-12-20T01:46:02;139.85;;;130.22;;
17414;SDS011;8825;48.086;16.426;2023-12-20T01:48:29;104.38;;;93.07;;
17414;SDS011;8825;48.086;16.426;2023-12-20T01:51:01;107.30;;;99.85;;
17414;SDS011;8825;48.086;16.426;2023-12-20T01:53:29;95.10;;;87.55;;
17414;SDS011;8825;48.086;16.426;2023-12-20T01:55:58;107.47;;;91.70;;
17414;SDS011;8825;48.086;16.426;2023-12-20T01:58:26;134.43;;;126.92;;
17414;SDS011;8825;48.086;16.426;2023-12-20T02:00:54;128.05;;;119.95;;
17414;SDS011;8825;48.086;16.426;2023-12-20T02:03:24;135.68;;;126.18;;
17414;SDS011;8825;48.086;16.426;2023-12-20T02:05:51;107.25;;;95.60;;
17414;SDS011;8825;48.086;16.426;2023-12-20T02:08:20;137.52;;;126.02;;
17414;SDS011;8825;48.086;16.426;2023-12-20T02:10:47;126.30;;;116.85;;
17414;SDS011;8825;48.086;16.426;2023-12-20T02:13:15;115.60;;;107.92;;
17414;SDS011;8825;48.086;16.426;2023-12-20T02:15:42;110.70;;;99.62;;
17414;SDS011;8825;48.086;16.426;2023-12-20T02:18:10;119.90;;;108.87;;
17414;SDS011;8825;48.086;16.426;2023-12-20T02:20:39;94.92;;;86.78;;
17414;SDS011;8825;48.086;16.426;2023-12-20T02:23:07;100.65;;;90.83;;
17414;SDS011;8825;48.086;16.426;2023-12-20T02:25:35;94.60;;;85.85;;
17414;SDS011;8825;48.086;16.426;2023-12-20T02:28:03;96.37;;;88.20;;
17414;SDS011;8825;48.086;16.426;2023-12-20T02:30:32;107.67;;;100.67;;
17414;SDS011;8825;48.086;16.426;2023-12-20T02:33:00;148.43;;;133.65;;
17414;SDS011;8825;48.086;16.426;2023-12-20T02:35:30;90.50;;;84.25;;
17414;SDS011;8825;48.086;16.426;2023-12-20T02:37:57;120.57;;;107.40;;
17414;SDS011;8825;48.086;16.426;2023-12-20T02:40:24;126.07;;;108.90;;
17414;SDS011;8825;48.086;16.426;2023-12-20T02:42:52;150.55;;;106.00;;
17414;SDS011;8825;48.086;16.426;2023-12-20T02:45:19;139.03;;;115.42;;
17414;SDS011;8825;48.086;16.426;2023-12-20T02:47:47;127.32;;;116.93;;
17414;SDS011;8825;48.086;16.426;2023-12-20T02:50:14;172.40;;;149.02;;
17414;SDS011;8825;48.086;16.426;2023-12-20T02:52:44;173.87;;;122.50;;
17414;SDS011;8825;48.086;16.426;2023-12-20T02:55:12;207.25;;;187.27;;
17414;SDS011;8825;48.086;16.426;2023-12-20T02:57:39;151.68;;;135.55;;
17414;SDS011;8825;48.086;16.426;2023-12-20T03:00:11;120.17;;;108.00;;
17414;SDS011;8825;48.086;16.426;2023-12-20T03:02:39;180.95;;;142.30;;
17414;SDS011;8825;48.086;16.426;2023-12-20T03:05:07;154.12;;;139.37;;
17414;SDS011;8825;48.086;16.426;2023-12-20T03:07:36;154.15;;;140.12;;
17414;SDS011;8825;48.086;16.426;2023-12-20T03:10:04;124.62;;;116.47;;
17414;SDS011;8825;48.086;16.426;2023-12-20T03:12:34;122.55;;;110.65;;
17414;SDS011;8825;48.086;16.426;2023-12-20T03:15:01;133.93;;;123.58;;
17414;SDS011;8825;48.086;16.426;2023-12-20T03:17:29;150.10;;;140.35;;
17414;SDS011;8825;48.086;16.426;2023-12-20T03:19:56;132.65;;;122.75;;
17414;SDS011;8825;48.086;16.426;2023-12-20T03:22:24;114.00;;;106.27;;
17414;SDS011;8825;48.086;16.426;2023-12-20T03:24:51;200.78;;;185.20;;
17414;SDS011;8825;48.086;16.426;2023-12-20T03:27:19;134.30;;;126.53;;
17414;SDS011;8825;48.086;16.426;2023-12-20T03:29:46;168.57;;;157.40;;
17414;SDS011;8825;48.086;16.426;2023-12-20T03:32:14;111.22;;;100.80;;
17414;SDS011;8825;48.086;16.426;2023-12-20T03:34:42;123.07;;;108.15;;
17414;SDS011;8825;48.086;16.426;2023-12-20T03:37:09;141.40;;;131.05;;
17414;SDS011;8825;48.086;16.426;2023-12-20T03:39:37;114.70;;;107.67;;
17414;SDS011;8825;48.086;16.426;2023-12-20T03:42:04;140.80;;;130.15;;
17414;SDS011;8825;48.086;16.426;2023-12-20T03:44:32;125.70;;;113.92;;
17414;SDS011;8825;48.086;16.426;2023-12-20T03:47:00;110.48;;;100.05;;
17414;SDS011;8825;48.086;16.426;2023-12-20T03:49:27;121.22;;;109.37;;
17414;SDS011;8825;48.086;16.426;2023-12-20T03:51:55;148.43;;;139.45;;
17414;SDS011;8825;48.086;16.426;2023-12-20T03:54:22;135.63;;;127.40;;
17414;SDS011;8825;48.086;16.426;2023-12-20T03:56:50;134.50;;;126.78;;
17414;SDS011;8825;48.086;16.426;2023-12-20T03:59:18;118.75;;;110.78;;
17414;SDS011;8825;48.086;16.426;2023-12-20T04:01:45;162.47;;;137.68;;
17414;SDS011;8825;48.086;16.426;2023-12-20T04:04:13;116.25;;;109.17;;
17414;SDS011;8825;48.086;16.426;2023-12-20T04:06:41;106.22;;;98.67;;
17414;SDS011;8825;48.086;16.426;2023-12-20T04:09:09;103.58;;;96.47;;
17414;SDS011;8825;48.086;16.426;2023-12-20T04:11:36;129.20;;;121.92;;
17414;SDS011;8825;48.086;16.426;2023-12-20T04:14:04;110.22;;;103.30;;
17414;SDS011;8825;48.086;16.426;2023-12-20T04:16:33;104.67;;;97.65;;
17414;SDS011;8825;48.086;16.426;2023-12-20T04:19:01;106.22;;;98.47;;
17414;SDS011;8825;48.086;16.426;2023-12-20T04:21:28;169.53;;;158.75;;
17414;SDS011;8825;48.086;16.426;2023-12-20T04:23:56;142.20;;;134.47;;
17414;SDS011;8825;48.086;16.426;2023-12-20T04:26:24;127.82;;;120.92;;
17414;SDS011;8825;48.086;16.426;2023-12-20T04:28:51;126.80;;;119.77;;
17414;SDS011;8825;48.086;16.426;2023-12-20T04:31:19;93.10;;;87.57;;
17414;SDS011;8825;48.086;16.426;2023-12-20T04:33:46;98.35;;;92.65;;
17414;SDS011;8825;48.086;16.426;2023-12-20T04:36:14;112.75;;;106.45;;
17414;SDS011;8825;48.086;16.426;2023-12-20T04:38:41;107.25;;;99.72;;
17414;SDS011;8825;48.086;16.426;2023-12-20T04:41:09;146.53;;;134.37;;
17414;SDS011;8825;48.086;16.426;2023-12-20T04:43:36;153.30;;;141.45;;
17414;SDS011;8825;48.086;16.426;2023-12-20T04:46:04;135.65;;;126.35;;
17414;SDS011;8825;48.086;16.426;2023-12-20T04:48:31;111.42;;;104.03;;
17414;SDS011;8825;48.086;16.426;2023-12-20T04:50:59;79.97;;;74.82;;
17414;SDS011;8825;48.086;16.426;2023-12-20T04:53:28;96.95;;;91.32;;
17414;SDS011;8825;48.086;16.426;2023-12-20T04:55:55;107.83;;;101.70;;
17414;SDS011;8825;48.086;16.426;2023-12-20T04:58:23;94.03;;;88.22;;
17414;SDS011;8825;48.086;16.426;2023-12-20T05:00:51;89.30;;;83.80;;
17414;SDS011;8825;48.086;16.426;2023-12-20T05:03:18;133.93;;;126.12;;
17414;SDS011;8825;48.086;16.426;2023-12-20T05:05:46;111.65;;;105.30;;
17414;SDS011;8825;48.086;16.426;2023-12-20T05:08:14;91.97;;;86.53;;
17414;SDS011;8825;48.086;16.426;2023-12-20T05:10:41;113.75;;;107.20;;
17414;SDS011;8825;48.086;16.426;2023-12-20T05:13:09;115.82;;;108.75;;
17414;SDS011;8825;48.086;16.426;2023-12-20T05:15:36;107.50;;;100.20;;
17414;SDS011;8825;48.086;16.426;2023-12-20T05:18:04;95.12;;;89.28;;
17414;SDS011;8825;48.086;16.426;2023-12-20T05:20:31;97.15;;;91.10;;
17414;SDS011;8825;48.086;16.426;2023-12-20T05:22:59;100.85;;;94.42;;
17414;SDS011;8825;48.086;16.426;2023-12-20T05:25:26;108.85;;;102.02;;
17414;SDS011;8825;48.086;16.426;2023-12-20T05:27:54;107.10;;;100.00;;
17414;SDS011;8825;48.086;16.426;2023-12-20T05:30:22;101.82;;;95.28;;
17414;SDS011;8825;48.086;16.426;2023-12-20T05:32:49;117.95;;;110.90;;
17414;SDS011;8825;48.086;16.426;2023-12-20T05:35:17;133.78;;;126.30;;
17414;SDS011;8825;48.086;16.426;2023-12-20T05:37:45;145.97;;;137.92;;
17414;SDS011;8825;48.086;16.426;2023-12-20T05:40:12;117.15;;;110.45;;
17414;SDS011;8825;48.086;16.426;2023-12-20T05:42:40;142.37;;;134.65;;
17414;SDS011;8825;48.086;16.426;2023-12-20T05:45:07;118.75;;;112.08;;
17414;SDS011;8825;48.086;16.426;2023-12-20T05:47:36;155.87;;;147.53;;
17414;SDS011;8825;48.086;16.426;2023-12-20T05:50:04;122.17;;;115.35;;
17414;SDS011;8825;48.086;16.426;2023-12-20T05:52:32;137.72;;;130.30;;
17414;SDS011;8825;48.086;16.426;2023-12-20T05:55:00;120.60;;;114.03;;
17414;SDS011;8825;48.086;16.426;2023-12-20T05:57:27;107.90;;;101.78;;
17414;SDS011;8825;48.086;16.426;2023-12-20T05:59:55;137.45;;;130.15;;
17414;SDS011;8825;48.086;16.426;2023-12-20T06:02:22;119.55;;;113.00;;
17414;SDS011;8825;48.086;16.426;2023-12-20T06:04:50;103.70;;;97.62;;
17414;SDS011;8825;48.086;16.426;2023-12-20T06:07:17;106.83;;;100.70;;
17414;SDS011;8825;48.086;16.426;2023-12-20T06:09:45;104.27;;;98.47;;
17414;SDS011;8825;48.086;16.426;2023-12-20T06:12:12;101.15;;;95.55;;
17414;SDS011;8825;48.086;16.426;2023-12-20T06:14:40;90.70;;;85.45;;
17414;SDS011;8825;48.086;16.426;2023-12-20T06:17:08;123.70;;;117.35;;
17414;SDS011;8825;48.086;16.426;2023-12-20T06:19:35;108.60;;;102.62;;
17414;SDS011;8825;48.086;16.426;2023-12-20T06:22:03;120.85;;;114.30;;
17414;SDS011;8825;48.086;16.426;2023-12-20T06:24:30;118.20;;;111.65;;
17414;SDS011;8825;48.086;16.426;2023-12-20T06:26:59;119.50;;;112.57;;
17414;SDS011;8825;48.086;16.426;2023-12-20T06:29:27;112.03;;;105.97;;
17414;SDS011;8825;48.086;16.426;2023-12-20T06:31:56;137.90;;;130.75;;
17414;SDS011;8825;48.086;16.426;2023-12-20T06:34:24;147.02;;;139.62;;
17414;SDS011;8825;48.086;16.426;2023-12-20T06:36:51;139.65;;;132.72;;
17414;SDS011;8825;48.086;16.426;2023-12-20T06:39:19;89.00;;;83.80;;
17414;SDS011;8825;48.086;16.426;2023-12-20T06:41:46;109.60;;;103.70;;
17414;SDS011;8825;48.086;16.426;2023-12-20T06:44:14;158.57;;;150.42;;
17414;SDS011;8825;48.086;16.426;2023-12-20T06:46:41;161.03;;;152.62;;
17414;SDS011;8825;48.086;16.426;2023-12-20T06:49:11;102.47;;;96.67;;
17414;SDS011;8825;48.086;16.426;2023-12-20T06:51:39;88.10;;;82.97;;
17414;SDS011;8825;48.086;16.426;2023-12-20T06:54:06;117.53;;;111.40;;
17414;SDS011;8825;48.086;16.426;2023-12-20T06:56:34;112.10;;;106.17;;
17414;SDS011;8825;48.086;16.426;2023-12-20T06:59:01;84.87;;;79.87;;
17414;SDS011;8825;48.086;16.426;2023-12-20T07:04:09;50.28;;;47.75;;
17414;SDS011;8825;48.086;16.426;2023-12-20T07:06:36;52.08;;;49.40;;
17414;SDS011;8825;48.086;16.426;2023-12-20T07:09:04;47.00;;;44.53;;
17414;SDS011;8825;48.086;16.426;2023-12-20T07:11:31;50.65;;;47.90;;
17414;SDS011;8825;48.086;16.426;2023-12-20T07:13:59;50.10;;;47.80;;
17414;SDS011;8825;48.086;16.426;2023-12-20T07:16:27;48.73;;;46.10;;
17414;SDS011;8825;48.086;16.426;2023-12-20T07:18:54;60.60;;;57.88;;
17414;SDS011;8825;48.086;16.426;2023-12-20T07:21:23;75.17;;;71.82;;
17414;SDS011;8825;48.086;16.426;2023-12-20T07:23:51;95.97;;;91.85;;
17414;SDS011;8825;48.086;16.426;2023-12-20T07:26:18;112.32;;;107.15;;
17414;SDS011;8825;48.086;16.426;2023-12-20T07:28:46;150.47;;;144.05;;
17414;SDS011;8825;48.086;16.426;2023-12-20T07:31:15;166.88;;;159.50;;
17414;SDS011;8825;48.086;16.426;2023-12-20T07:33:42;187.05;;;178.95;;
17414;SDS011;8825;48.086;16.426;2023-12-20T07:36:10;159.57;;;152.53;;
17414;SDS011;8825;48.086;16.426;2023-12-20T07:38:38;171.47;;;163.93;;
17414;SDS011;8825;48.086;16.426;2023-12-20T07:41:09;151.37;;;144.63;;
17414;SDS011;8825;48.086;16.426;2023-12-20T07:43:37;112.77;;;107.60;;
17414;SDS011;8825;48.086;16.426;2023-12-20T07:46:05;58.20;;;55.50;;
17414;SDS011;8825;48.086;16.426;2023-12-20T07:48:34;42.90;;;40.80;;
17414;SDS011;8825;48.086;16.426;2023-12-20T07:51:02;56.47;;;53.90;;
17414;SDS011;8825;48.086;16.426;2023-12-20T07:53:32;72.63;;;69.47;;
17414;SDS011;8825;48.086;16.426;2023-12-20T07:56:01;83.57;;;80.00;;
17414;SDS011;8825;48.086;16.426;2023-12-20T07:58:28;92.10;;;87.97;;
17414;SDS011;8825;48.086;16.426;2023-12-20T08:00:57;110.40;;;105.60;;
17414;SDS011;8825;48.086;16.426;2023-12-20T08:03:24;82.10;;;78.40;;
17414;SDS011;8825;48.086;16.426;2023-12-20T08:05:52;86.50;;;82.50;;
17414;SDS011;8825;48.086;16.426;2023-12-20T08:08:19;88.50;;;84.37;;
17414;SDS011;8825;48.086;16.426;2023-12-20T08:10:46;80.47;;;76.83;;
17414;SDS011;8825;48.086;16.426;2023-12-20T08:13:14;95.50;;;91.30;;
17414;SDS011;8825;48.086;16.426;2023-12-20T08:15:41;86.03;;;82.03;;
17414;SDS011;8825;48.086;16.426;2023-12-20T08:18:09;90.07;;;86.20;;
17414;SDS011;8825;48.086;16.426;2023-12-20T08:20:37;97.07;;;92.90;;
17414;SDS011;8825;48.086;16.426;2023-12-20T08:23:04;79.47;;;75.97;;
17414;SDS011;8825;48.086;16.426;2023-12-20T08:25:32;64.70;;;61.73;;
17414;SDS011;8825;48.086;16.426;2023-12-20T08:27:59;70.43;;;67.10;;
17414;SDS011;8825;48.086;16.426;2023-12-20T08:30:27;73.90;;;70.17;;
17414;SDS011;8825;48.086;16.426;2023-12-20T08:32:57;53.13;;;50.60;;
17414;SDS011;8825;48.086;16.426;2023-12-20T08:35:28;50.80;;;48.33;;
17414;SDS011;8825;48.086;16.426;2023-12-20T08:37:56;47.77;;;45.53;;
17414;SDS011;8825;48.086;16.426;2023-12-20T08:40:23;46.97;;;44.87;;
17414;SDS011;8825;48.086;16.426;2023-12-20T08:42:51;38.60;;;36.63;;
17414;SDS011;8825;48.086;16.426;2023-12-20T08:45:18;51.27;;;48.87;;
17414;SDS011;8825;48.086;16.426;2023-12-20T08:47:46;48.67;;;46.47;;
17414;SDS011;8825;48.086;16.426;2023-12-20T08:50:13;48.63;;;46.30;;
17414;SDS011;8825;48.086;16.426;2023-12-20T08:52:41;46.87;;;44.63;;
17414;SDS011;8825;48.086;16.426;2023-12-20T08:55:08;38.60;;;36.60;;
17414;SDS011;8825;48.086;16.426;2023-12-20T08:57:36;31.07;;;29.60;;
17414;SDS011;8825;48.086;16.426;2023-12-20T09:00:04;63.67;;;59.87;;
17414;SDS011;8825;48.086;16.426;2023-12-20T09:02:33;36.90;;;35.00;;
17414;SDS011;8825;48.086;16.426;2023-12-20T09:05:02;31.53;;;30.10;;
17414;SDS011;8825;48.086;16.426;2023-12-20T09:07:29;33.10;;;31.53;;
17414;SDS011;8825;48.086;16.426;2023-12-20T09:09:58;34.43;;;32.90;;
17414;SDS011;8825;48.086;16.426;2023-12-20T09:12:25;36.37;;;34.73;;
17414;SDS011;8825;48.086;16.426;2023-12-20T09:14:53;42.17;;;40.20;;
17414;SDS011;8825;48.086;16.426;2023-12-20T09:17:20;46.83;;;44.80;;
17414;SDS011;8825;48.086;16.426;2023-12-20T09:19:50;74.30;;;71.10;;
17414;SDS011;8825;48.086;16.426;2023-12-20T09:22:19;54.87;;;52.27;;
17414;SDS011;8825;48.086;16.426;2023-12-20T09:24:46;51.77;;;49.37;;
17414;SDS011;8825;48.086;16.426;2023-12-20T09:27:14;45.17;;;43.10;;
17414;SDS011;8825;48.086;16.426;2023-12-20T09:29:41;65.43;;;62.63;;
17414;SDS011;8825;48.086;16.426;2023-12-20T09:32:09;87.83;;;84.13;;
17414;SDS011;8825;48.086;16.426;2023-12-20T09:34:36;91.93;;;88.00;;
17414;SDS011;8825;48.086;16.426;2023-12-20T09:37:04;89.43;;;85.57;;
17414;SDS011;8825;48.086;16.426;2023-12-20T09:39:33;101.77;;;96.67;;
17414;SDS011;8825;48.086;16.426;2023-12-20T09:42:02;96.97;;;93.03;;
17414;SDS011;8825;48.086;16.426;2023-12-20T09:44:30;146.90;;;141.10;;
17414;SDS011;8825;48.086;16.426;2023-12-20T09:47:03;91.77;;;87.67;;
17414;SDS011;8825;48.086;16.426;2023-12-20T09:49:31;100.77;;;96.50;;
17414;SDS011;8825;48.086;16.426;2023-12-20T09:52:00;83.17;;;79.27;;
17414;SDS011;8825;48.086;16.426;2023-12-20T09:54:29;59.57;;;56.97;;
17414;SDS011;8825;48.086;16.426;2023-12-20T09:56:57;43.50;;;41.63;;
17414;SDS011;8825;48.086;16.426;2023-12-20T09:59:25;36.67;;;35.10;;
17414;SDS011;8825;48.086;16.426;2023-12-20T10:01:52;40.50;;;38.77;;
17414;SDS011;8825;48.086;16.426;2023-12-20T10:04:22;44.87;;;42.97;;
17414;SDS011;8825;48.086;16.426;2023-12-20T10:06:51;50.57;;;48.40;;
17414;SDS011;8825;48.086;16.426;2023-12-20T10:09:19;33.20;;;31.83;;
17414;SDS011;8825;48.086;16.426;2023-12-20T10:11:46;50.13;;;48.03;;
17414;SDS011;8825;48.086;16.426;2023-12-20T10:14:14;50.67;;;48.50;;
17414;SDS011;8825;48.086;16.426;2023-12-20T10:16:44;44.20;;;42.40;;
17414;SDS011;8825;48.086;16.426;2023-12-20T10:19:12;37.10;;;35.57;;
17414;SDS011;8825;48.086;16.426;2023-12-20T10:21:41;44.17;;;42.30;;
17414;SDS011;8825;48.086;16.426;2023-12-20T10:24:09;43.63;;;41.80;;
17414;SDS011;8825;48.086;16.426;2023-12-20T10:26:38;40.30;;;38.60;;
17414;SDS011;8825;48.086;16.426;2023-12-20T10:29:05;36.50;;;35.03;;
17414;SDS011;8825;48.086;16.426;2023-12-20T10:31:33;47.60;;;45.70;;
17414;SDS011;8825;48.086;16.426;2023-12-20T10:34:02;50.37;;;48.30;;
17414;SDS011;8825;48.086;16.426;2023-12-20T10:36:30;43.20;;;41.40;;
17414;SDS011;8825;48.086;16.426;2023-12-20T10:39:00;34.17;;;32.77;;
17414;SDS011;8825;48.086;16.426;2023-12-20T10:41:29;35.67;;;34.13;;
17414;SDS011;8825;48.086;16.426;2023-12-20T10:43:59;38.20;;;36.70;;
17414;SDS011;8825;48.086;16.426;2023-12-20T10:46:29;44.43;;;42.57;;
17414;SDS011;8825;48.086;16.426;2023-12-20T10:48:58;38.43;;;36.87;;
17414;SDS011;8825;48.086;16.426;2023-12-20T10:51:28;43.17;;;41.37;;
17414;SDS011;8825;48.086;16.426;2023-12-20T10:53:56;43.20;;;41.40;;
17414;SDS011;8825;48.086;16.426;2023-12-20T10:56:23;46.23;;;44.33;;
17414;SDS011;8825;48.086;16.426;2023-12-20T10:58:52;48.63;;;46.63;;
17414;SDS011;8825;48.086;16.426;2023-12-20T11:01:20;41.47;;;39.77;;
17414;SDS011;8825;48.086;16.426;2023-12-20T11:03:49;46.13;;;44.23;;
17414;SDS011;8825;48.086;16.426;2023-12-20T11:06:26;34.20;;;32.83;;
17414;SDS011;8825;48.086;16.426;2023-12-20T11:09:25;40.63;;;39.03;;
17414;SDS011;8825;48.086;16.426;2023-12-20T11:14:50;34.83;;;33.33;;
17414;SDS011;8825;48.086;16.426;2023-12-20T11:17:17;40.50;;;38.90;;
17414;SDS011;8825;48.086;16.426;2023-12-20T11:20:03;40.57;;;38.97;;
17414;SDS011;8825;48.086;16.426;2023-12-20T11:22:30;42.23;;;40.53;;
17414;SDS011;8825;48.086;16.426;2023-12-20T11:25:03;40.50;;;38.83;;
17414;SDS011;8825;48.086;16.426;2023-12-20T11:27:40;42.07;;;40.37;;
17414;SDS011;8825;48.086;16.426;2023-12-20T11:30:09;41.47;;;39.67;;
17414;SDS011;8825;48.086;16.426;2023-12-20T11:32:37;34.40;;;33.00;;
17414;SDS011;8825;48.086;16.426;2023-12-20T11:37:40;34.53;;;33.13;;
17414;SDS011;8825;48.086;16.426;2023-12-20T11:40:15;37.83;;;36.30;;
17414;SDS011;8825;48.086;16.426;2023-12-20T11:42:45;46.63;;;44.80;;
17414;SDS011;8825;48.086;16.426;2023-12-20T11:45:14;34.57;;;33.20;;
17414;SDS011;8825;48.086;16.426;2023-12-20T11:47:48;42.30;;;40.60;;
17414;SDS011;8825;48.086;16.426;2023-12-20T11:50:19;43.07;;;41.37;;
17414;SDS011;8825;48.086;16.426;2023-12-20T11:52:48;40.30;;;38.70;;
17414;SDS011;8825;48.086;16.426;2023-12-20T11:55:23;52.13;;;50.00;;
17414;SDS011;8825;48.086;16.426;2023-12-20T11:57:51;43.50;;;41.77;;
17414;SDS011;8825;48.086;16.426;2023-12-20T12:00:18;37.17;;;35.67;;
17414;SDS011;8825;48.086;16.426;2023-12-20T12:02:59;52.17;;;50.07;;
17414;SDS011;8825;48.086;16.426;2023-12-20T12:05:30;56.57;;;54.27;;
17414;SDS011;8825;48.086;16.426;2023-12-20T12:07:58;45.90;;;44.03;;
17414;SDS011;8825;48.086;16.426;2023-12-20T12:10:26;36.80;;;35.30;;
17414;SDS011;8825;48.086;16.426;2023-12-20T12:12:53;53.13;;;50.93;;
17414;SDS011;8825;48.086;16.426;2023-12-20T12:15:21;43.90;;;42.10;;
17414;SDS011;8825;48.086;16.426;2023-12-20T12:17:55;52.23;;;50.03;;
17414;SDS011;8825;48.086;16.426;2023-12-20T12:20:23;47.43;;;45.43;;
17414;SDS011;8825;48.086;16.426;2023-12-20T12:25:32;47.47;;;45.03;;
17414;SDS011;8825;48.086;16.426;2023-12-20T12:28:01;49.47;;;47.37;;
17414;SDS011;8825;48.086;16.426;2023-12-20T12:30:28;46.60;;;44.63;;
17414;SDS011;8825;48.086;16.426;2023-12-20T12:32:56;61.10;;;58.50;;
17414;SDS011;8825;48.086;16.426;2023-12-20T12:35:27;92.23;;;88.27;;
17414;SDS011;8825;48.086;16.426;2023-12-20T12:37:54;132.23;;;126.67;;
17414;SDS011;8825;48.086;16.426;2023-12-20T12:40:23;134.17;;;128.27;;
17414;SDS011;8825;48.086;16.426;2023-12-20T12:42:51;115.97;;;110.93;;
17414;SDS011;8825;48.086;16.426;2023-12-20T12:45:19;107.23;;;102.73;;
17414;SDS011;8825;48.086;16.426;2023-12-20T12:47:46;126.30;;;120.97;;
17414;SDS011;8825;48.086;16.426;2023-12-20T12:50:14;132.30;;;126.60;;
17414;SDS011;8825;48.086;16.426;2023-12-20T12:52:41;88.87;;;85.13;;
17414;SDS011;8825;48.086;16.426;2023-12-20T12:55:09;90.47;;;86.63;;
17414;SDS011;8825;48.086;16.426;2023-12-20T12:57:36;82.40;;;78.83;;
17414;SDS011;8825;48.086;16.426;2023-12-20T13:00:04;79.37;;;76.03;;
17414;SDS011;8825;48.086;16.426;2023-12-20T13:02:34;73.90;;;70.80;;
17414;SDS011;8825;48.086;16.426;2023-12-20T13:05:04;62.03;;;59.13;;
17414;SDS011;8825;48.086;16.426;2023-12-20T13:07:32;83.93;;;80.37;;
17414;SDS011;8825;48.086;16.426;2023-12-20T13:09:59;83.00;;;79.43;;
17414;SDS011;8825;48.086;16.426;2023-12-20T13:12:27;63.33;;;60.70;;
17414;SDS011;8825;48.086;16.426;2023-12-20T13:14:55;59.47;;;56.87;;
17414;SDS011;8825;48.086;16.426;2023-12-20T13:17:23;47.70;;;45.67;;
17414;SDS011;8825;48.086;16.426;2023-12-20T13:19:50;80.80;;;77.47;;
17414;SDS011;8825;48.086;16.426;2023-12-20T13:22:18;53.17;;;50.90;;
17414;SDS011;8825;48.086;16.426;2023-12-20T13:24:45;47.63;;;45.73;;
17414;SDS011;8825;48.086;16.426;2023-12-20T13:27:13;46.13;;;44.23;;
17414;SDS011;8825;48.086;16.426;2023-12-20T13:29:40;49.70;;;47.50;;
17414;SDS011;8825;48.086;16.426;2023-12-20T13:32:08;69.07;;;66.20;;
17414;SDS011;8825;48.086;16.426;2023-12-20T13:34:35;89.53;;;85.83;;
17414;SDS011;8825;48.086;16.426;2023-12-20T13:37:03;54.20;;;52.00;;
17414;SDS011;8825;48.086;16.426;2023-12-20T13:39:30;50.43;;;48.40;;
17414;SDS011;8825;48.086;16.426;2023-12-20T13:41:58;61.07;;;58.57;;
17414;SDS011;8825;48.086;16.426;2023-12-20T13:44:26;70.77;;;67.87;;
17414;SDS011;8825;48.086;16.426;2023-12-20T13:46:53;56.73;;;54.40;;
17414;SDS011;8825;48.086;16.426;2023-12-20T13:49:21;46.10;;;44.20;;
17414;SDS011;8825;48.086;16.426;2023-12-20T13:51:50;62.87;;;60.27;;
17414;SDS011;8825;48.086;16.426;2023-12-20T13:54:19;47.83;;;45.90;;
17414;SDS011;8825;48.086;16.426;2023-12-20T13:56:48;84.60;;;81.20;;
17414;SDS011;8825;48.086;16.426;2023-12-20T13:59:15;61.10;;;58.67;;
17414;SDS011;8825;48.086;16.426;2023-12-20T14:01:43;50.40;;;48.37;;
17414;SDS011;8825;48.086;16.426;2023-12-20T14:04:10;110.93;;;106.50;;
17414;SDS011;8825;48.086;16.426;2023-12-20T14:06:38;75.40;;;72.30;;
17414;SDS011;8825;48.086;16.426;2023-12-20T14:09:06;91.13;;;87.43;;
17414;SDS011;8825;48.086;16.426;2023-12-20T14:11:34;65.43;;;62.80;;
17414;SDS011;8825;48.086;16.426;2023-12-20T14:14:07;59.53;;;57.17;;
17414;SDS011;8825;48.086;16.426;2023-12-20T14:16:35;52.13;;;50.13;;
17414;SDS011;8825;48.086;16.426;2023-12-20T14:19:03;47.13;;;45.23;;
17414;SDS011;8825;48.086;16.426;2023-12-20T14:21:33;48.10;;;46.20;;
17414;SDS011;8825;48.086;16.426;2023-12-20T14:24:00;37.17;;;35.70;;
17414;SDS011;8825;48.086;16.426;2023-12-20T14:26:30;60.83;;;58.33;;
17414;SDS011;8825;48.086;16.426;2023-12-20T14:28:57;61.60;;;59.00;;
17414;SDS011;8825;48.086;16.426;2023-12-20T14:31:25;66.67;;;63.73;;